Thornton, Wisconsin
Current Conditions -  °F | °C
As of 7:15 AM on Tuesday 21 Oct 2014 (Local Time) from KEZS Reporting Station
Overcast Overcast  
Wind Chill: 39°   Ceiling: 2600
Heat Index: 45°   Visibility: 10mi
Dew Point: 37°   Wind: 12mph
Humidity: 73%   Direction: 30°NNE
Pressure: 30.18"   Gusts: 18mph
Location:  44.7924°N, 88.6722°W
Report Text: KEZS 211215Z AUTO 03010G16KT 10SM OVC026 07/03 A3018 RMK AO2 T00700025
Loading
Personal Weather Stations






























Interactive Weather Map
Tropical Storm Tracking
New forecast layout! Learn more

10-Day Weather Forecast

Advertisements
Track Severe Weather on mobile